Grand Junction, Michigan
Current Conditions -  °F | °C
As of 7:34 AM on Thursday 23 Oct 2014 (Local Time) from KLWA Reporting Station
Haze Haze  
Wind Chill: 35°   Ceiling: Unl
Heat Index: 35°   Visibility: 3mi
Dew Point: 35°   Wind: 0mph
Humidity: 98%   Direction: NA
Pressure: 30.24"   Gusts: NA
Location:  42.4°N, 86.07°W
Report Text: KLWA 231134Z AUTO 00000KT 3SM BR CLR 02/02 A3024 RMK AO2 T00190016
Loading
Personal Weather Stations






























Interactive Weather Map
Tropical Storm Tracking
New forecast layout! Learn more

10-Day Weather Forecast

Advertisements
Track Severe Weather on mobile